Absarokee, Montana
Current Conditions -  °F | °C
As of 9:53 AM on Tuesday 27 Jan 2015 (Local Time) from KBIL Reporting Station
Broken Clouds Broken Clouds  
Wind Chill: 42°   Ceiling: 20000
Heat Index: 49°   Visibility: 10mi
Dew Point: 28°   Wind: 18mph
Humidity: 44%   Direction: 220°SW
Pressure: 29.93"   Gusts: NA
Location:  45.53°N, 109.43°W
Report Text: KBIL 271653Z 22016KT 10SM SCT110 BKN200 09/M02 A2993 RMK AO2 SLP135 T00941022
Loading
Personal Weather Stations






























Interactive Weather Map New forecast layout! Learn more

10-Day Weather Forecast

Advertisements
Track Severe Weather on mobile